Date,TemperatureHighF,TemperatureAvgF,TemperatureLowF,DewpointHighF,DewpointAvgF,DewpointLowF,HumidityHigh,HumidityAvg,HumidityLow,PressureMaxIn,PressureMinIn,WindSpeedMaxMPH,WindSpeedAvgMPH,GustSpeedMaxMPH,PrecipitationSumIn
2013-2-1,29.7,10.6,-7.1,24.9,5.0,-10.7,88,78,63,30.55,30.09,19,4,19,0.00
2013-2-2,39.4,24.9,17.2,33.6,20.9,14.3,95,85,71,30.32,30.14,36,7,39,0.02
2013-2-3,50.7,31.6,13.6,31.5,22.7,10.8,95,72,44,30.34,29.89,23,4,23,0.00
2013-2-4,30.9,21.0,16.3,29.2,17.3,12.8,94,86,76,30.19,29.91,16,4,16,0.00
2013-2-5,44.9,32.8,23.8,31.5,27.3,21.7,94,81,56,30.20,29.90,27,6,28,0.00
2013-2-6,47.4,37.6,27.6,37.0,31.5,26.1,94,80,63,30.18,29.96,21,5,22,0.00
2013-2-7,35.7,29.7,25.7,33.2,26.4,21.7,95,88,80,30.40,30.06,21,7,21,0.00
2013-2-8,32.9,26.2,22.3,25.9,22.9,20.5,94,88,75,30.45,30.22,27,6,27,0.00
2013-2-9,50.4,36.9,24.5,35.6,30.9,22.8,94,80,55,30.23,29.82,24,9,26,0.00
2013-2-10,43.2,34.3,26.3,41.5,32.4,24.1,96,93,82,29.84,29.38,39,12,41,0.18
2013-2-11,26.7,25.2,20.2,24.2,21.3,18.0,93,85,78,30.26,29.84,41,11,41,0.00
2013-2-12,41.4,28.3,17.5,27.1,21.6,15.6,94,78,50,30.26,30.01,16,4,16,0.00
2013-2-13,50.4,37.3,22.3,33.1,29.0,20.6,94,74,46,30.03,29.83,20,3,20,0.00
2013-2-14,38.4,30.8,14.9,32.5,25.3,10.4,95,81,54,30.45,29.90,33,9,33,0.00
2013-2-15,26.3,18.0,8.9,21.5,14.4,7.0,93,86,67,30.51,30.44,18,3,18,0.00
2013-2-16,33.4,22.1,8.2,27.9,18.2,6.3,93,85,76,30.47,30.13,14,3,14,0.00
2013-2-17,49.4,35.3,22.4,34.8,27.2,19.3,89,74,52,30.13,29.72,22,7,22,0.00
2013-2-18,41.9,25.9,8.6,34.3,20.2,1.7,94,79,66,30.24,29.73,48,17,48,0.05
2013-2-19,15.1,7.7,-0.2,3.5,0.2,-3.9,85,71,53,30.55,30.22,41,13,41,0.00
2013-2-20,23.9,10.4,-3.4,7.7,-0.3,-7.3,89,64,40,30.58,30.34,17,4,19,0.00
2013-2-21,24.2,19.6,17.4,18.9,12.8,7.7,93,76,52,30.40,30.05,15,4,16,0.00
2013-2-22,21.2,16.6,10.9,16.8,14.2,8.8,93,90,79,30.13,30.04,23,6,24,0.00
2013-2-23,27.0,14.1,0.0,18.8,9.1,-78.6,93,84,1,30.12,29.93,10,2,10,0.12
2013-2-24,22.4,16.4,5.8,20.7,14.6,4.0,93,93,91,30.22,30.00,9,2,9,0.00
2013-2-25,31.5,24.5,18.9,27.2,22.2,17.2,94,91,80,30.24,30.08,10,2,11,0.02
2013-2-26,32.0,24.8,18.8,28.2,22.5,17.1,94,91,85,30.14,29.98,14,4,16,0.00
2013-2-27,24.1,23.4,22.2,22.4,21.7,20.4,93,93,93,30.08,30.05,23,12,23,0.00